createdAt,value
2019-06-08T00:00:00.126Z,1.60
2019-06-08T00:02:28.899Z,1.50
2019-06-08T00:04:57.486Z,1.52
2019-06-08T00:07:26.006Z,1.65
2019-06-08T00:09:54.504Z,1.50
2019-06-08T00:12:23.294Z,1.60
2019-06-08T00:14:52.042Z,1.37
2019-06-08T00:17:35.747Z,1.45
2019-06-08T00:19:50.846Z,1.60
2019-06-08T00:22:19.758Z,1.37
2019-06-08T00:24:48.378Z,1.72
2019-06-08T00:27:20.179Z,1.40
2019-06-08T00:29:49.426Z,1.40
2019-06-08T00:32:18.494Z,1.27
2019-06-08T00:34:47.127Z,1.40
2019-06-08T00:37:16.714Z,1.60
2019-06-08T00:39:45.422Z,1.67
2019-06-08T00:42:15.122Z,1.23
2019-06-08T00:44:43.806Z,1.50
2019-06-08T00:47:12.305Z,1.70
2019-06-08T00:49:42.462Z,1.75
2019-06-08T00:52:10.930Z,1.50
2019-06-08T00:54:39.369Z,1.80
2019-06-08T00:57:07.898Z,1.57
2019-06-08T00:59:36.452Z,1.40
2019-06-08T01:02:04.925Z,1.80
2019-06-08T01:04:33.415Z,1.52
2019-06-08T01:07:02.039Z,1.40
2019-06-08T01:09:31.171Z,1.40
2019-06-08T01:11:59.709Z,1.40
2019-06-08T01:14:29.125Z,1.50
2019-06-08T01:16:57.748Z,1.47
2019-06-08T01:19:27.406Z,1.20
2019-06-08T01:21:56.145Z,1.50
2019-06-08T01:24:25.669Z,1.50
2019-06-08T01:26:54.191Z,1.40
2019-06-08T01:29:24.019Z,1.20
2019-06-08T01:31:52.645Z,1.52
2019-06-08T01:34:22.680Z,1.40
2019-06-08T01:36:51.432Z,1.52
2019-06-08T01:39:21.038Z,1.60
2019-06-08T01:41:49.693Z,1.45
2019-06-08T01:44:18.238Z,1.50
2019-06-08T01:46:46.821Z,1.65
2019-06-08T01:49:15.409Z,1.37
2019-06-08T01:51:44.059Z,1.45
2019-06-08T01:54:12.510Z,1.47
2019-06-08T01:56:41.042Z,1.50
2019-06-08T01:59:09.503Z,1.45
2019-06-08T02:01:38.091Z,1.42
2019-06-08T02:04:06.535Z,1.30
2019-06-08T02:06:35.876Z,1.37
2019-06-08T02:09:06.977Z,1.32
2019-06-08T02:11:35.496Z,1.47
2019-06-08T02:14:04.238Z,1.37
2019-06-08T02:16:33.380Z,1.20
2019-06-08T02:19:02.026Z,1.50
2019-06-08T02:21:30.836Z,1.30
2019-06-08T02:23:59.504Z,1.30
2019-06-08T02:26:29.136Z,1.30
2019-06-08T02:28:58.424Z,1.30
2019-06-08T02:31:27.984Z,1.17
2019-06-08T02:33:56.642Z,1.37
2019-06-08T02:36:25.183Z,1.25
2019-06-08T02:38:53.737Z,1.50
2019-06-08T02:41:22.319Z,1.30
2019-06-08T02:43:50.879Z,1.30
2019-06-08T02:46:19.320Z,1.40
2019-06-08T02:49:03.572Z,1.30
2019-06-08T02:51:18.158Z,1.32
2019-06-08T02:53:46.610Z,1.40
2019-06-08T02:56:15.723Z,1.47
2019-06-08T02:58:44.239Z,1.40
2019-06-08T03:01:14.251Z,1.42
2019-06-08T03:03:44.226Z,1.60
2019-06-08T03:06:14.204Z,1.30
2019-06-08T03:08:44.006Z,1.55
2019-06-08T03:11:13.822Z,1.47
2019-06-08T03:13:43.892Z,1.57
2019-06-08T03:16:13.456Z,1.30
2019-06-08T03:18:42.659Z,1.40
2019-06-08T03:21:11.442Z,1.40
2019-06-08T03:23:41.546Z,1.37
2019-06-08T03:26:10.378Z,1.50
2019-06-08T03:28:39.990Z,1.30
2019-06-08T03:31:09.211Z,1.30
2019-06-08T03:33:45.350Z,1.57
2019-06-08T03:36:07.915Z,1.50
2019-06-08T03:38:37.647Z,1.47
2019-06-08T03:41:06.194Z,1.50
2019-06-08T03:43:35.368Z,1.67
2019-06-08T03:46:04.333Z,1.45
2019-06-08T03:48:32.776Z,1.50
2019-06-08T03:51:01.284Z,1.60
2019-06-08T03:53:29.870Z,1.55
2019-06-08T03:55:58.394Z,1.55
2019-06-08T03:58:26.876Z,1.40
2019-06-08T04:00:55.437Z,1.50
2019-06-08T04:03:24.049Z,1.80
2019-06-08T04:05:52.747Z,1.70
2019-06-08T04:08:21.194Z,1.70
2019-06-08T04:10:50.225Z,1.70
2019-06-08T04:13:18.889Z,1.77
2019-06-08T04:15:47.374Z,1.70
2019-06-08T04:18:15.914Z,1.90
2019-06-08T04:20:46.418Z,1.87
2019-06-08T04:23:14.694Z,1.63
2019-06-08T04:25:44.916Z,1.70
2019-06-08T04:28:13.389Z,1.90
2019-06-08T04:30:42.975Z,2.08
2019-06-08T04:33:12.202Z,1.98
2019-06-08T04:35:42.526Z,2.05
2019-06-08T04:38:10.875Z,1.80
2019-06-08T04:40:40.053Z,1.90
2019-06-08T04:43:09.468Z,2.25
2019-06-08T04:45:38.773Z,2.33
2019-06-08T04:48:09.743Z,2.30
2019-06-08T04:50:39.219Z,1.82
2019-06-08T04:53:08.930Z,2.40
2019-06-08T04:55:38.808Z,2.12
2019-06-08T04:58:07.439Z,2.33
2019-06-08T05:00:35.918Z,2.35
2019-06-08T05:03:04.744Z,2.05
2019-06-08T05:05:33.331Z,2.10
2019-06-08T05:08:01.953Z,2.37
2019-06-08T05:10:30.506Z,2.02
2019-06-08T05:12:59.103Z,2.10
2019-06-08T05:15:27.556Z,2.10
2019-06-08T05:17:56.094Z,1.73
2019-06-08T05:20:37.525Z,1.57
2019-06-08T05:22:54.841Z,2.00
2019-06-08T05:25:23.369Z,1.60
2019-06-08T05:27:51.871Z,2.17
2019-06-08T05:30:20.641Z,1.77
2019-06-08T05:32:49.668Z,1.70
2019-06-08T05:35:18.242Z,1.70
2019-06-08T05:37:47.765Z,1.57
2019-06-08T05:40:16.400Z,1.50
2019-06-08T05:42:45.742Z,1.83
2019-06-08T05:45:14.609Z,1.80
2019-06-08T05:47:43.887Z,1.67
2019-06-08T05:50:12.566Z,1.70
2019-06-08T05:52:41.893Z,2.27
2019-06-08T05:55:10.549Z,1.60
2019-06-08T05:57:40.059Z,1.77
2019-06-08T06:00:10.809Z,2.10
2019-06-08T06:02:40.180Z,1.60
2019-06-08T06:05:08.806Z,2.10
2019-06-08T06:07:37.286Z,1.87
2019-06-08T06:10:05.764Z,1.60
2019-06-08T06:12:35.284Z,1.63
2019-06-08T06:15:03.985Z,1.60
2019-06-08T06:17:32.449Z,1.80
2019-06-08T06:20:00.945Z,2.00
2019-06-08T06:22:29.411Z,1.73
2019-06-08T06:24:57.955Z,1.70
2019-06-08T06:27:26.500Z,1.77
2019-06-08T06:29:54.954Z,1.50
2019-06-08T06:32:23.522Z,1.30
2019-06-08T06:34:52.271Z,1.77
2019-06-08T06:37:20.925Z,1.43
2019-06-08T06:39:50.095Z,1.47
2019-06-08T06:42:18.989Z,1.60
2019-06-08T06:44:49.056Z,1.60
2019-06-08T06:47:18.033Z,1.90
2019-06-08T06:49:46.728Z,2.07
2019-06-08T06:52:15.187Z,1.40
2019-06-08T06:54:44.723Z,3.00
2019-06-08T06:57:13.522Z,2.27
2019-06-08T06:59:43.298Z,2.07
2019-06-08T07:02:12.129Z,1.70
2019-06-08T07:04:40.615Z,1.70
2019-06-08T07:07:09.184Z,1.50
2019-06-08T07:09:37.631Z,1.50
2019-06-08T07:12:06.385Z,1.70
2019-06-08T07:14:34.922Z,1.90
2019-06-08T07:17:03.422Z,1.57
2019-06-08T07:19:32.022Z,2.07
2019-06-08T07:22:00.583Z,1.67
2019-06-08T07:31:53.397Z,2.00
2019-06-08T07:34:22.036Z,2.10
2019-06-08T07:36:51.323Z,1.83
2019-06-08T07:39:20.018Z,1.95
2019-06-08T07:41:49.088Z,1.97
2019-06-08T07:44:18.818Z,2.30
2019-06-08T07:46:47.381Z,2.30
2019-06-08T07:49:15.935Z,2.10
2019-06-08T07:51:57.697Z,1.95
2019-06-08T07:54:14.634Z,2.20
2019-06-08T07:56:43.207Z,2.12
2019-06-08T07:59:11.669Z,2.15
2019-06-08T08:01:40.259Z,2.27
2019-06-08T08:04:08.841Z,2.10
2019-06-08T08:06:37.489Z,1.95
2019-06-08T08:09:06.616Z,1.85
2019-06-08T08:11:35.194Z,2.12
2019-06-08T08:14:03.971Z,1.92
2019-06-08T08:16:32.527Z,2.05
2019-06-08T08:19:01.077Z,2.02
2019-06-08T08:21:29.741Z,2.02
2019-06-08T08:24:01.478Z,2.17
2019-06-08T08:26:31.227Z,1.77
2019-06-08T08:29:03.044Z,1.90
2019-06-08T08:31:31.443Z,1.80
2019-06-08T08:34:05.587Z,1.90
2019-06-08T08:36:33.302Z,2.00
2019-06-08T08:39:02.335Z,1.93
2019-06-08T08:41:31.801Z,2.20
2019-06-08T08:44:04.190Z,1.60
2019-06-08T08:46:30.604Z,1.80
2019-06-08T08:49:07.345Z,1.53
2019-06-08T08:51:29.494Z,1.77
2019-06-08T08:54:04.784Z,2.10
2019-06-08T08:56:29.426Z,2.07
2019-06-08T08:59:00.959Z,1.77
2019-06-08T09:01:28.994Z,2.03
2019-06-08T09:04:02.901Z,2.07
2019-06-08T09:06:28.163Z,2.00
2019-06-08T09:09:00.769Z,1.60
2019-06-08T09:11:28.856Z,1.83
2019-06-08T09:14:04.370Z,1.60
2019-06-08T09:16:28.862Z,1.90
2019-06-08T09:19:01.060Z,1.70
2019-06-08T09:21:28.208Z,1.53
2019-06-08T09:24:00.708Z,1.97
2019-06-08T09:28:58.402Z,1.90
2019-06-08T09:31:30.824Z,1.87
2019-06-08T09:34:08.581Z,1.90
2019-06-08T09:36:28.799Z,1.93
2019-06-08T09:38:59.627Z,1.80
2019-06-08T09:41:31.035Z,2.10
2019-06-08T09:44:00.503Z,2.43
2019-06-08T09:46:28.343Z,1.80
2019-06-08T09:49:01.137Z,3.03
2019-06-08T09:51:28.522Z,1.90
2019-06-08T09:54:00.766Z,1.93
2019-06-08T09:59:01.266Z,2.00
2019-06-08T10:01:28.745Z,1.93
2019-06-08T10:04:00.645Z,1.73
2019-06-08T10:06:27.896Z,1.67
2019-06-08T10:08:56.495Z,2.90
2019-06-08T10:11:27.627Z,2.10
2019-06-08T10:13:57.096Z,2.20
2019-06-08T10:16:28.031Z,2.30
2019-06-08T10:18:57.675Z,1.90
2019-06-08T10:21:28.440Z,2.30
2019-06-08T10:24:00.604Z,1.90
2019-06-08T10:26:27.994Z,2.08
2019-06-08T10:29:00.100Z,1.93
2019-06-08T10:31:36.488Z,2.50
2019-06-08T10:34:01.562Z,2.55
2019-06-08T10:36:28.509Z,1.90
2019-06-08T10:39:01.781Z,2.17
2019-06-08T10:41:27.923Z,2.05
2019-06-08T10:43:57.194Z,2.00
2019-06-08T11:01:18.584Z,1.90
2019-06-08T11:03:48.717Z,2.00
2019-06-08T11:06:18.561Z,1.90
2019-06-08T11:08:47.639Z,1.72
2019-06-08T11:11:19.461Z,2.10
2019-06-08T11:13:50.183Z,2.20
2019-06-08T11:16:17.975Z,2.10
2019-06-08T11:18:50.622Z,1.95
2019-06-08T11:21:18.840Z,2.25
2019-06-08T11:24:04.546Z,2.00
2019-06-08T11:26:23.936Z,1.65
2019-06-08T11:28:51.121Z,1.90
2019-06-08T11:31:19.567Z,2.33
2019-06-08T11:33:49.870Z,2.00
2019-06-08T11:36:19.052Z,1.80
2019-06-08T11:38:49.151Z,1.90
2019-06-08T11:41:20.045Z,2.10
2019-06-08T11:43:47.889Z,2.00
2019-06-08T11:46:20.656Z,1.85
2019-06-08T11:48:48.504Z,2.10
2019-06-08T11:51:17.444Z,2.17
2019-06-08T11:53:49.048Z,1.87
2019-06-08T11:56:18.267Z,1.73
2019-06-08T11:58:48.607Z,1.77
2019-06-08T12:01:18.521Z,1.82
2019-06-08T12:03:48.475Z,1.82
2019-06-08T12:06:18.544Z,2.20
2019-06-08T12:08:47.429Z,1.72
2019-06-08T12:11:19.765Z,1.90
2019-06-08T12:13:47.339Z,2.00
2019-06-08T12:16:21.595Z,1.90
2019-06-08T12:18:49.277Z,1.80
2019-06-08T12:21:18.590Z,1.77
2019-06-08T12:23:46.924Z,1.57
2019-06-08T12:26:15.413Z,2.00
2019-06-08T12:28:43.874Z,1.92
2019-06-08T12:31:21.489Z,1.90
2019-06-08T12:33:48.630Z,1.87
2019-06-08T12:36:17.861Z,1.77
2019-06-08T12:38:48.669Z,1.80
2019-06-08T12:41:17.306Z,1.90
2019-06-08T12:43:47.854Z,1.57
2019-06-08T12:46:16.971Z,1.75
2019-06-08T12:48:46.426Z,1.87
2019-06-08T12:51:16.437Z,1.98
2019-06-08T12:53:45.186Z,1.87
2019-06-08T12:56:14.813Z,2.00
2019-06-08T12:58:43.880Z,1.70
2019-06-08T13:01:12.890Z,1.80
2019-06-08T13:03:41.554Z,1.80
2019-06-08T13:06:11.215Z,2.02
2019-06-08T13:08:40.374Z,1.80
2019-06-08T13:11:09.764Z,1.70
2019-06-08T13:13:39.131Z,1.65
2019-06-08T13:16:08.538Z,1.62
2019-06-08T13:18:40.315Z,1.80
2019-06-08T13:21:16.794Z,1.77
2019-06-08T13:23:40.830Z,1.70
2019-06-08T13:26:08.930Z,1.87
2019-06-08T13:28:38.489Z,1.52
2019-06-08T13:31:11.643Z,1.55
2019-06-08T13:33:38.614Z,1.83
2019-06-08T13:36:07.265Z,1.70
2019-06-08T13:38:37.947Z,1.77
2019-06-08T13:41:06.020Z,1.85
2019-06-08T13:43:34.635Z,1.65
2019-06-08T13:46:03.116Z,1.62
2019-06-08T13:48:31.665Z,1.70
2019-06-08T13:51:00.229Z,1.70
2019-06-08T13:53:31.771Z,1.90
2019-06-08T13:55:58.958Z,1.87
2019-06-08T13:58:33.180Z,1.80
2019-06-08T14:00:59.837Z,1.87
2019-06-08T14:03:27.953Z,1.70
2019-06-08T14:05:56.541Z,1.60
2019-06-08T14:08:26.506Z,1.90
2019-06-08T14:10:57.937Z,1.70
2019-06-08T14:13:34.115Z,1.67
2019-06-08T14:16:01.769Z,1.90
2019-06-08T14:18:34.165Z,2.10
2019-06-08T14:21:00.680Z,1.90
2019-06-08T14:23:29.453Z,1.95
2019-06-08T14:26:00.281Z,1.95
2019-06-08T14:28:28.965Z,1.90
2019-06-08T14:30:59.374Z,1.82
2019-06-08T14:33:32.070Z,2.00
2019-06-08T14:35:59.111Z,2.00
2019-06-08T14:38:35.867Z,1.95
2019-06-08T14:40:59.107Z,2.00
2019-06-08T14:43:29.977Z,2.10
2019-06-08T14:45:58.057Z,1.62
2019-06-08T14:48:33.212Z,1.95
2019-06-08T14:50:59.603Z,1.80
2019-06-08T14:53:28.941Z,1.73
2019-06-08T14:56:05.678Z,1.90
2019-06-08T14:58:33.601Z,2.05
2019-06-08T15:00:58.117Z,1.73
2019-06-08T15:03:27.290Z,2.00
2019-06-08T15:05:57.762Z,1.70
2019-06-08T15:08:28.214Z,1.85
2019-06-08T15:10:58.211Z,2.00
2019-06-08T15:13:28.616Z,1.90
2019-06-08T15:16:00.445Z,1.82
2019-06-08T15:18:28.704Z,1.90
2019-06-08T15:20:58.188Z,1.67
2019-06-08T15:23:29.035Z,1.67
2019-06-08T15:25:58.287Z,1.70
2019-06-08T15:28:29.549Z,1.75
2019-06-08T15:30:59.738Z,1.62
2019-06-08T15:33:32.133Z,1.77
2019-06-08T15:35:57.740Z,1.60
2019-06-08T15:38:28.025Z,1.80
2019-06-08T15:40:57.665Z,2.25
2019-06-08T15:43:29.167Z,1.90
2019-06-08T15:45:59.155Z,2.10
2019-06-08T15:48:28.981Z,1.90
2019-06-08T15:50:58.452Z,1.80
2019-06-08T15:53:29.701Z,1.60
2019-06-08T15:56:01.854Z,1.80
2019-06-08T15:58:32.525Z,1.70
2019-06-08T16:01:00.839Z,1.47
2019-06-08T16:03:29.426Z,1.60
2019-06-08T16:05:58.043Z,1.60
2019-06-08T16:08:26.758Z,1.80
2019-06-08T16:10:57.339Z,1.92
2019-06-08T16:13:26.783Z,1.63
2019-06-08T16:15:56.921Z,1.60
2019-06-08T16:18:44.235Z,1.70
2019-06-08T16:21:20.943Z,1.50
2019-06-08T16:23:49.505Z,1.60
2019-06-08T16:26:18.468Z,1.40
2019-06-08T16:28:48.916Z,1.47
2019-06-08T16:31:17.665Z,1.70
2019-06-08T16:33:46.159Z,1.60
2019-06-08T16:36:14.710Z,2.20
2019-06-08T16:38:43.285Z,1.50
2019-06-08T16:41:11.869Z,1.60
2019-06-08T16:43:41.495Z,1.50
2019-06-08T16:46:10.087Z,1.40
2019-06-08T16:48:39.515Z,1.70
2019-06-08T16:51:08.327Z,1.50
2019-06-08T16:53:38.012Z,1.50
2019-06-08T16:56:06.511Z,17.63
2019-06-08T16:58:36.111Z,2.58
2019-06-08T17:01:05.234Z,2.15
2019-06-08T17:03:34.853Z,1.77
2019-06-08T17:06:03.703Z,1.80
2019-06-08T17:08:35.762Z,1.53
2019-06-08T17:11:02.609Z,1.67
2019-06-08T17:13:31.931Z,1.30
2019-06-08T17:30:50.022Z,1.80
2019-06-08T17:33:18.613Z,1.70
2019-06-08T17:35:47.211Z,1.83
2019-06-08T17:38:15.710Z,1.80
2019-06-08T17:40:44.217Z,1.75
2019-06-08T17:43:12.865Z,1.80
2019-06-08T17:45:42.768Z,1.87
2019-06-08T17:48:11.736Z,2.05
2019-06-08T17:50:40.796Z,1.90
2019-06-08T17:53:09.708Z,2.10
2019-06-08T17:55:39.477Z,1.80
2019-06-08T17:58:08.344Z,1.90
2019-06-08T18:00:37.473Z,1.80
2019-06-08T18:03:08.307Z,1.70
2019-06-08T18:05:39.382Z,1.90
2019-06-08T18:08:07.830Z,1.98
2019-06-08T18:10:38.970Z,1.97
2019-06-08T18:13:07.393Z,1.87
2019-06-08T18:15:38.639Z,1.77
2019-06-08T18:18:08.588Z,1.70
2019-06-08T18:20:39.166Z,1.70
2019-06-08T18:23:08.193Z,1.60
2019-06-08T18:25:38.729Z,1.62
2019-06-08T18:28:12.891Z,1.72
2019-06-08T18:30:40.409Z,1.70
2019-06-08T18:33:07.860Z,1.60
2019-06-08T18:35:39.449Z,1.60
2019-06-08T18:38:07.293Z,1.40
2019-06-08T18:40:37.942Z,1.60
2019-06-08T18:43:07.585Z,1.60
2019-06-08T18:45:39.507Z,2.00
2019-06-08T18:48:07.128Z,1.70
2019-06-08T18:50:38.059Z,1.30
2019-06-08T18:53:07.126Z,1.70
2019-06-08T18:55:38.740Z,1.63
2019-06-08T18:58:17.507Z,1.40
2019-06-08T19:00:39.773Z,1.47
2019-06-08T19:03:07.388Z,1.70
2019-06-08T19:05:40.235Z,1.50
2019-06-08T19:08:07.497Z,1.70
2019-06-08T19:10:37.867Z,1.40
2019-06-08T19:13:06.674Z,1.60
2019-06-08T19:15:40.686Z,1.60
2019-06-08T19:18:08.186Z,1.63
2019-06-08T19:20:40.675Z,1.40
2019-06-08T19:23:08.971Z,1.47
2019-06-08T19:25:42.069Z,1.90
2019-06-08T19:28:07.909Z,1.50
2019-06-08T19:30:39.448Z,1.63
2019-06-08T19:33:07.515Z,1.60
2019-06-08T19:35:37.609Z,1.50
2019-06-08T19:38:07.398Z,1.70
2019-06-08T19:40:38.824Z,1.50
2019-06-08T19:43:07.506Z,1.40
2019-06-08T19:45:38.641Z,1.33
2019-06-08T19:48:08.324Z,1.60
2019-06-08T19:50:38.614Z,1.67
2019-06-08T19:53:07.484Z,1.60
2019-06-08T19:55:36.062Z,1.57
2019-06-08T19:58:04.725Z,1.50
2019-06-08T20:00:33.337Z,1.50
2019-06-08T20:03:02.012Z,1.92
2019-06-08T20:05:30.579Z,1.50
2019-06-08T20:07:59.200Z,1.90
2019-06-08T20:10:28.182Z,1.90
2019-06-08T20:12:57.521Z,2.00
2019-06-08T20:15:26.958Z,2.30
2019-06-08T20:17:57.480Z,1.87
2019-06-08T20:20:27.678Z,2.03
2019-06-08T20:22:58.369Z,2.00
2019-06-08T20:25:27.909Z,2.33
2019-06-08T20:27:58.654Z,2.63
2019-06-08T20:30:28.172Z,2.93
2019-06-08T20:32:58.485Z,2.97
2019-06-08T20:35:28.056Z,2.67
2019-06-08T20:37:57.888Z,2.70
2019-06-08T20:40:27.988Z,2.77
2019-06-08T20:42:57.752Z,3.13
2019-06-08T20:45:28.031Z,3.60
2019-06-08T20:48:01.557Z,5.17
2019-06-08T20:50:30.208Z,4.83
2019-06-08T20:53:01.893Z,6.67
2019-06-08T20:55:30.411Z,7.07
2019-06-08T20:57:58.951Z,7.87
2019-06-08T21:00:27.597Z,7.00
2019-06-08T21:03:02.581Z,4.87
2019-06-08T21:05:27.773Z,5.43
2019-06-08T21:07:58.931Z,3.90
2019-06-08T21:10:28.156Z,4.03
2019-06-08T21:12:58.748Z,4.07
2019-06-08T21:15:27.559Z,4.03
2019-06-08T21:17:56.142Z,6.77
2019-06-08T21:20:24.729Z,7.00
2019-06-08T21:22:54.806Z,6.77
2019-06-08T21:25:23.580Z,6.43
2019-06-08T21:27:52.659Z,6.33
2019-06-08T21:30:24.733Z,6.70
2019-06-08T21:32:54.502Z,5.70
2019-06-08T21:35:22.918Z,5.40
2019-06-08T21:37:53.397Z,4.67
2019-06-08T21:40:21.793Z,4.73
2019-06-08T21:42:52.139Z,5.10
2019-06-08T21:45:20.636Z,5.07
2019-06-08T21:47:51.393Z,5.30
2019-06-08T21:50:20.492Z,5.57
2019-06-08T21:52:51.490Z,5.00
2019-06-08T21:55:20.266Z,4.80
2019-06-08T21:57:51.985Z,4.37
2019-06-08T22:00:38.694Z,4.67
2019-06-08T22:02:53.694Z,5.10
2019-06-08T22:05:23.303Z,5.03
2019-06-08T22:07:51.970Z,5.60
2019-06-08T22:10:20.442Z,6.27
2019-06-08T22:12:50.761Z,5.73
2019-06-08T22:15:22.540Z,6.30
2019-06-08T22:17:51.997Z,5.57
2019-06-08T22:20:21.259Z,3.87
2019-06-08T22:22:59.787Z,3.30
2019-06-08T22:25:28.760Z,3.50
2019-06-08T22:27:58.373Z,2.40
2019-06-08T22:30:36.357Z,2.90
2019-06-08T22:32:59.966Z,2.97
2019-06-08T22:35:30.900Z,2.80
2019-06-08T22:38:00.831Z,2.97
2019-06-08T22:40:29.548Z,2.90
2019-06-08T22:43:00.721Z,4.30
2019-06-08T22:45:28.411Z,4.00
2019-06-08T22:47:59.382Z,3.93
2019-06-08T22:50:27.626Z,4.10
2019-06-08T22:52:59.338Z,4.57
2019-06-08T22:55:27.761Z,4.83
2019-06-08T22:57:59.862Z,5.00
2019-06-08T23:00:27.850Z,4.53
2019-06-08T23:03:01.054Z,4.40
2019-06-08T23:05:27.869Z,3.87
2019-06-08T23:07:59.830Z,3.73
2019-06-08T23:10:26.896Z,4.13
2019-06-08T23:12:58.900Z,3.70
2019-06-08T23:15:25.741Z,4.27
2019-06-08T23:17:54.846Z,3.87
2019-06-08T23:20:24.441Z,4.23
2019-06-08T23:22:53.301Z,4.13
2019-06-08T23:25:21.850Z,4.20
2019-06-08T23:27:50.337Z,3.83
2019-06-08T23:30:18.922Z,4.93
2019-06-08T23:32:47.972Z,4.43
2019-06-08T23:35:18.151Z,4.40
2019-06-08T23:37:47.859Z,4.17
2019-06-08T23:40:17.955Z,4.50
2019-06-08T23:42:47.652Z,4.17
2019-06-08T23:45:17.667Z,3.67
2019-06-08T23:47:48.114Z,3.60
2019-06-08T23:50:17.803Z,4.00
2019-06-08T23:52:47.885Z,4.03
2019-06-08T23:55:18.235Z,3.50
2019-06-08T23:57:47.042Z,3.60
